sensor_id;sensor_type;location;lat;lon;timestamp;pressure;altitude;pressure_sealevel;temperature;humidity
48796;BME280;34607;48.520;-1.330;2023-03-20T00:01:15;100807.66;;;7.94;88.70
48796;BME280;34607;48.520;-1.330;2023-03-20T00:03:43;100798.94;;;7.90;88.86
48796;BME280;34607;48.520;-1.330;2023-03-20T00:06:14;100802.44;;;7.92;88.87
48796;BME280;34607;48.520;-1.330;2023-03-20T00:08:42;100798.97;;;7.92;88.89
48796;BME280;34607;48.520;-1.330;2023-03-20T00:11:24;100779.66;;;7.79;88.97
48796;BME280;34607;48.520;-1.330;2023-03-20T00:13:54;100799.13;;;7.96;89.03
48796;BME280;34607;48.520;-1.330;2023-03-20T00:16:23;100775.41;;;7.81;88.97
48796;BME280;34607;48.520;-1.330;2023-03-20T00:18:50;100795.53;;;7.91;88.95
48796;BME280;34607;48.520;-1.330;2023-03-20T00:21:20;100786.81;;;7.87;89.07
48796;BME280;34607;48.520;-1.330;2023-03-20T00:23:47;100790.06;;;7.82;89.33
48796;BME280;34607;48.520;-1.330;2023-03-20T00:26:17;100787.38;;;7.79;89.46
48796;BME280;34607;48.520;-1.330;2023-03-20T00:28:45;100787.31;;;7.77;89.60
48796;BME280;34607;48.520;-1.330;2023-03-20T00:31:22;100782.09;;;7.76;89.57
48796;BME280;34607;48.520;-1.330;2023-03-20T00:33:51;100779.59;;;7.77;89.87
48796;BME280;34607;48.520;-1.330;2023-03-20T00:36:19;100784.00;;;7.80;89.74
48796;BME280;34607;48.520;-1.330;2023-03-20T00:38:46;100779.81;;;7.83;89.36
48796;BME280;34607;48.520;-1.330;2023-03-20T00:41:21;100778.31;;;7.90;89.22
48796;BME280;34607;48.520;-1.330;2023-03-20T00:43:51;100778.41;;;7.93;89.06
48796;BME280;34607;48.520;-1.330;2023-03-20T00:46:19;100778.31;;;7.90;89.24
48796;BME280;34607;48.520;-1.330;2023-03-20T00:48:46;100781.81;;;7.92;89.26
48796;BME280;34607;48.520;-1.330;2023-03-20T00:51:16;100786.34;;;7.99;89.06
48796;BME280;34607;48.520;-1.330;2023-03-20T00:53:43;100788.00;;;7.97;88.86
48796;BME280;34607;48.520;-1.330;2023-03-20T00:56:29;100792.84;;;7.88;88.87
48796;BME280;34607;48.520;-1.330;2023-03-20T00:58:57;100791.16;;;7.88;89.39
48796;BME280;34607;48.520;-1.330;2023-03-20T01:01:25;100776.16;;;7.77;89.44
48796;BME280;34607;48.520;-1.330;2023-03-20T01:03:52;100787.78;;;7.91;89.37
48796;BME280;34607;48.520;-1.330;2023-03-20T01:06:19;100793.06;;;7.94;89.40
48796;BME280;34607;48.520;-1.330;2023-03-20T01:08:46;100785.53;;;8.00;89.21
48796;BME280;34607;48.520;-1.330;2023-03-20T01:11:15;100780.38;;;8.00;88.92
48796;BME280;34607;48.520;-1.330;2023-03-20T01:13:48;100706.38;;;7.46;89.20
48796;BME280;34607;48.520;-1.330;2023-03-20T01:16:20;100761.81;;;7.85;89.17
48796;BME280;34607;48.520;-1.330;2023-03-20T01:18:48;100776.97;;;8.01;89.16
48796;BME280;34607;48.520;-1.330;2023-03-20T01:21:15;100776.03;;;7.99;89.28
48796;BME280;34607;48.520;-1.330;2023-03-20T01:23:43;100761.25;;;7.94;89.41
48796;BME280;34607;48.520;-1.330;2023-03-20T01:26:20;100754.09;;;7.85;89.37
48796;BME280;34607;48.520;-1.330;2023-03-20T01:28:50;100752.53;;;7.90;89.39
48796;BME280;34607;48.520;-1.330;2023-03-20T01:31:18;100776.97;;;8.01;89.43
48796;BME280;34607;48.520;-1.330;2023-03-20T01:33:45;100782.06;;;8.00;89.33
48796;BME280;34607;48.520;-1.330;2023-03-20T01:36:14;100775.94;;;7.96;89.36
48796;BME280;34607;48.520;-1.330;2023-03-20T01:38:43;100785.38;;;7.96;89.66
48796;BME280;34607;48.520;-1.330;2023-03-20T01:41:15;100773.19;;;7.92;89.71
48796;BME280;34607;48.520;-1.330;2023-03-20T01:43:44;100768.94;;;7.92;89.32
48796;BME280;34607;48.520;-1.330;2023-03-20T01:46:17;100779.44;;;7.98;89.35
48796;BME280;34607;48.520;-1.330;2023-03-20T01:49:04;100767.91;;;7.87;89.57
48796;BME280;34607;48.520;-1.330;2023-03-20T01:51:33;100762.94;;;7.93;89.77
48796;BME280;34607;48.520;-1.330;2023-03-20T01:54:11;100767.44;;;7.99;89.46
48796;BME280;34607;48.520;-1.330;2023-03-20T01:56:57;100764.91;;;8.00;89.27
48796;BME280;34607;48.520;-1.330;2023-03-20T01:59:28;100770.81;;;7.98;89.17
48796;BME280;34607;48.520;-1.330;2023-03-20T02:01:58;100748.03;;;7.84;89.22
48796;BME280;34607;48.520;-1.330;2023-03-20T02:04:29;100760.28;;;7.90;89.36
48796;BME280;34607;48.520;-1.330;2023-03-20T02:07:07;100761.31;;;7.97;89.23
48796;BME280;34607;48.520;-1.330;2023-03-20T02:09:56;100756.84;;;7.91;89.32
48796;BME280;34607;48.520;-1.330;2023-03-20T02:12:37;100744.94;;;7.95;89.22
48796;BME280;34607;48.520;-1.330;2023-03-20T02:15:09;100681.00;;;7.59;89.32
48796;BME280;34607;48.520;-1.330;2023-03-20T02:18:07;100725.91;;;7.91;89.63
48796;BME280;34607;48.520;-1.330;2023-03-20T02:20:44;100726.81;;;7.93;89.07
48796;BME280;34607;48.520;-1.330;2023-03-20T02:23:44;100737.06;;;7.90;88.88
48796;BME280;34607;48.520;-1.330;2023-03-20T02:26:40;100725.97;;;7.93;89.15
48796;BME280;34607;48.520;-1.330;2023-03-20T02:29:30;100725.91;;;7.91;89.08
48796;BME280;34607;48.520;-1.330;2023-03-20T02:35:35;100710.16;;;7.82;89.40
48796;BME280;34607;48.520;-1.330;2023-03-20T02:38:29;100717.09;;;7.84;89.15
48796;BME280;34607;48.520;-1.330;2023-03-20T02:41:03;100719.03;;;7.90;89.02
48796;BME280;34607;48.520;-1.330;2023-03-20T02:43:42;100729.56;;;7.98;88.89
48796;BME280;34607;48.520;-1.330;2023-03-20T02:46:17;100732.31;;;8.02;88.46
48796;BME280;34607;48.520;-1.330;2023-03-20T02:48:54;100721.16;;;8.03;88.53
48796;BME280;34607;48.520;-1.330;2023-03-20T02:51:34;100704.56;;;7.95;88.54
48796;BME280;34607;48.520;-1.330;2023-03-20T02:54:08;100694.84;;;7.86;88.42
48796;BME280;34607;48.520;-1.330;2023-03-20T02:56:44;100700.47;;;8.02;88.33
48796;BME280;34607;48.520;-1.330;2023-03-20T02:59:21;100710.69;;;7.99;88.32
48796;BME280;34607;48.520;-1.330;2023-03-20T03:01:55;100712.31;;;7.95;88.64
48796;BME280;34607;48.520;-1.330;2023-03-20T03:04:30;100698.53;;;7.95;88.31
48796;BME280;34607;48.520;-1.330;2023-03-20T03:07:00;100708.94;;;7.98;88.22
48796;BME280;34607;48.520;-1.330;2023-03-20T03:09:32;100712.38;;;7.98;88.12
48796;BME280;34607;48.520;-1.330;2023-03-20T03:12:05;100566.28;;;7.17;88.11
48796;BME280;34607;48.520;-1.330;2023-03-20T03:14:39;100705.38;;;7.94;87.92
48796;BME280;34607;48.520;-1.330;2023-03-20T03:17:13;100708.19;;;8.02;88.11
48796;BME280;34607;48.520;-1.330;2023-03-20T03:19:45;100694.16;;;7.92;88.04
48796;BME280;34607;48.520;-1.330;2023-03-20T03:22:14;100706.13;;;7.90;88.00
48796;BME280;34607;48.520;-1.330;2023-03-20T03:24:45;100698.34;;;7.88;88.13
48796;BME280;34607;48.520;-1.330;2023-03-20T03:27:17;100698.22;;;7.85;88.10
48796;BME280;34607;48.520;-1.330;2023-03-20T03:29:50;100698.19;;;7.84;88.33
48796;BME280;34607;48.520;-1.330;2023-03-20T03:32:25;100694.84;;;7.88;88.04
48796;BME280;34607;48.520;-1.330;2023-03-20T03:34:54;100699.22;;;7.89;88.12
48796;BME280;34607;48.520;-1.330;2023-03-20T03:37:27;100695.72;;;7.87;87.85
48796;BME280;34607;48.520;-1.330;2023-03-20T03:40:04;100696.47;;;7.84;87.79
48796;BME280;34607;48.520;-1.330;2023-03-20T03:42:36;100694.00;;;7.87;87.77
48796;BME280;34607;48.520;-1.330;2023-03-20T03:45:07;100692.28;;;7.88;87.59
48796;BME280;34607;48.520;-1.330;2023-03-20T03:47:37;100698.28;;;7.87;87.74
48796;BME280;34607;48.520;-1.330;2023-03-20T03:50:13;100698.97;;;7.81;87.69
48796;BME280;34607;48.520;-1.330;2023-03-20T03:52:42;100656.09;;;7.58;87.73
48796;BME280;34607;48.520;-1.330;2023-03-20T03:55:14;100684.38;;;7.82;87.68
48796;BME280;34607;48.520;-1.330;2023-03-20T03:58:07;100680.88;;;7.80;87.43
48796;BME280;34607;48.520;-1.330;2023-03-20T04:00:36;100678.56;;;7.89;87.49
48796;BME280;34607;48.520;-1.330;2023-03-20T04:03:07;100678.56;;;7.89;86.90
48796;BME280;34607;48.520;-1.330;2023-03-20T04:05:36;100680.03;;;7.81;86.97
48796;BME280;34607;48.520;-1.330;2023-03-20T04:08:06;100660.84;;;7.73;87.07
48796;BME280;34607;48.520;-1.330;2023-03-20T04:10:35;100684.72;;;7.93;86.72
48796;BME280;34607;48.520;-1.330;2023-03-20T04:13:02;100683.00;;;7.93;86.74
48796;BME280;34607;48.520;-1.330;2023-03-20T04:15:29;100677.84;;;7.93;86.49
48796;BME280;34607;48.520;-1.330;2023-03-20T04:17:56;100681.16;;;7.89;86.45
48796;BME280;34607;48.520;-1.330;2023-03-20T04:20:23;100671.59;;;7.85;86.84
48796;BME280;34607;48.520;-1.330;2023-03-20T04:22:50;100669.06;;;7.88;86.79
48796;BME280;34607;48.520;-1.330;2023-03-20T04:25:24;100657.13;;;7.90;86.55
48796;BME280;34607;48.520;-1.330;2023-03-20T04:27:58;100665.75;;;7.91;86.27
48796;BME280;34607;48.520;-1.330;2023-03-20T04:31:00;100671.38;;;7.79;86.35
48796;BME280;34607;48.520;-1.330;2023-03-20T04:33:36;100660.31;;;7.83;86.93
48796;BME280;34607;48.520;-1.330;2023-03-20T04:36:13;100658.81;;;7.90;86.92
48796;BME280;34607;48.520;-1.330;2023-03-20T04:38:40;100662.25;;;7.88;86.79
48796;BME280;34607;48.520;-1.330;2023-03-20T04:41:08;100655.13;;;7.81;87.13
48796;BME280;34607;48.520;-1.330;2023-03-20T04:43:36;100669.06;;;7.88;87.13
48796;BME280;34607;48.520;-1.330;2023-03-20T04:46:04;100668.16;;;7.86;87.42
48796;BME280;34607;48.520;-1.330;2023-03-20T04:48:32;100657.94;;;7.89;87.59
48796;BME280;34607;48.520;-1.330;2023-03-20T04:50:59;100655.22;;;7.84;87.81
48796;BME280;34607;48.520;-1.330;2023-03-20T04:53:41;100650.84;;;7.82;88.25
48796;BME280;34607;48.520;-1.330;2023-03-20T04:56:08;100637.03;;;7.80;88.38
48796;BME280;34607;48.520;-1.330;2023-03-20T04:58:37;100648.28;;;7.82;88.54
48796;BME280;34607;48.520;-1.330;2023-03-20T05:01:05;100652.41;;;7.77;89.20
48796;BME280;34607;48.520;-1.330;2023-03-20T05:03:32;100653.31;;;7.79;89.46
48796;BME280;34607;48.520;-1.330;2023-03-20T05:06:00;100649.97;;;7.81;89.49
48796;BME280;34607;48.520;-1.330;2023-03-20T05:08:27;100650.84;;;7.82;89.67
48796;BME280;34607;48.520;-1.330;2023-03-20T05:10:58;100655.22;;;7.84;90.04
48796;BME280;34607;48.520;-1.330;2023-03-20T05:13:45;100635.91;;;7.72;90.30
48796;BME280;34607;48.520;-1.330;2023-03-20T05:16:35;100657.75;;;7.83;90.68
48796;BME280;34607;48.520;-1.330;2023-03-20T05:19:12;100656.13;;;7.85;90.85
48796;BME280;34607;48.520;-1.330;2023-03-20T05:21:57;100639.13;;;7.64;91.16
48796;BME280;34607;48.520;-1.330;2023-03-20T05:24:37;100661.44;;;7.91;91.03
48796;BME280;34607;48.520;-1.330;2023-03-20T05:27:11;100667.47;;;7.92;91.13
48796;BME280;34607;48.520;-1.330;2023-03-20T05:29:57;100664.13;;;7.94;91.11
48796;BME280;34607;48.520;-1.330;2023-03-20T05:32:45;100643.28;;;7.88;91.22
48796;BME280;34607;48.520;-1.330;2023-03-20T05:35:35;100665.06;;;7.96;91.47
48796;BME280;34607;48.520;-1.330;2023-03-20T05:38:22;100663.50;;;8.01;91.21
48796;BME280;34607;48.520;-1.330;2023-03-20T05:41:17;100666.13;;;8.03;91.38
48796;BME280;34607;48.520;-1.330;2023-03-20T05:44:08;100666.31;;;8.09;91.35
48796;BME280;34607;48.520;-1.330;2023-03-20T05:46:48;100666.56;;;8.17;91.10
48796;BME280;34607;48.520;-1.330;2023-03-20T05:49:38;100672.56;;;8.16;91.04
48796;BME280;34607;48.520;-1.330;2023-03-20T05:52:05;100669.97;;;8.16;91.14
48796;BME280;34607;48.520;-1.330;2023-03-20T05:54:40;100667.41;;;8.16;91.50
48796;BME280;34607;48.520;-1.330;2023-03-20T05:57:25;100672.56;;;8.16;91.53
48796;BME280;34607;48.520;-1.330;2023-03-20T06:00:25;100680.00;;;8.06;92.43
48796;BME280;34607;48.520;-1.330;2023-03-20T06:03:13;100677.78;;;8.19;92.07
48796;BME280;34607;48.520;-1.330;2023-03-20T06:06:04;100656.00;;;8.09;92.09
48796;BME280;34607;48.520;-1.330;2023-03-20T06:08:32;100677.03;;;8.21;92.02
48796;BME280;34607;48.520;-1.330;2023-03-20T06:11:01;100670.91;;;8.18;92.05
48796;BME280;34607;48.520;-1.330;2023-03-20T06:13:29;100673.81;;;8.01;93.32
48796;BME280;34607;48.520;-1.330;2023-03-20T06:15:59;100684.44;;;8.11;93.33
48796;BME280;34607;48.520;-1.330;2023-03-20T06:18:28;100684.56;;;8.15;92.92
48796;BME280;34607;48.520;-1.330;2023-03-20T06:20:56;100657.63;;;8.07;92.90
48796;BME280;34607;48.520;-1.330;2023-03-20T06:23:26;100685.63;;;8.22;92.96
48796;BME280;34607;48.520;-1.330;2023-03-20T06:25:53;100688.41;;;8.28;92.92
48796;BME280;34607;48.520;-1.330;2023-03-20T06:28:21;100685.09;;;8.32;92.78
48796;BME280;34607;48.520;-1.330;2023-03-20T06:30:55;100686.94;;;8.36;92.67
48796;BME280;34607;48.520;-1.330;2023-03-20T06:33:23;100686.94;;;8.36;92.58
48796;BME280;34607;48.520;-1.330;2023-03-20T06:35:57;100683.63;;;8.40;92.56
48796;BME280;34607;48.520;-1.330;2023-03-20T06:38:27;100684.81;;;8.50;92.61
48796;BME280;34607;48.520;-1.330;2023-03-20T06:40:54;100690.19;;;8.58;92.41
48796;BME280;34607;48.520;-1.330;2023-03-20T06:43:22;100695.50;;;8.62;92.38
48796;BME280;34607;48.520;-1.330;2023-03-20T06:45:51;100697.84;;;8.55;92.66
48796;BME280;34607;48.520;-1.330;2023-03-20T06:48:24;100701.38;;;8.57;92.68
48796;BME280;34607;48.520;-1.330;2023-03-20T06:50:52;100701.53;;;8.63;92.78
48796;BME280;34607;48.520;-1.330;2023-03-20T06:53:24;100704.97;;;8.62;92.91
48796;BME280;34607;48.520;-1.330;2023-03-20T06:56:07;100698.75;;;8.55;92.88
48796;BME280;34607;48.520;-1.330;2023-03-20T06:58:38;100694.69;;;8.65;93.04
48796;BME280;34607;48.520;-1.330;2023-03-20T07:01:09;100699.03;;;8.66;93.00
48796;BME280;34607;48.520;-1.330;2023-03-20T07:03:38;100689.72;;;8.42;93.15
48796;BME280;34607;48.520;-1.330;2023-03-20T07:06:07;100695.13;;;8.50;93.89
48796;BME280;34607;48.520;-1.330;2023-03-20T07:08:39;100694.25;;;8.50;93.99
48796;BME280;34607;48.520;-1.330;2023-03-20T07:11:06;100699.34;;;8.47;94.23
48796;BME280;34607;48.520;-1.330;2023-03-20T07:13:33;100696.06;;;8.52;94.16
48796;BME280;34607;48.520;-1.330;2023-03-20T07:16:10;100691.63;;;8.48;94.32
48796;BME280;34607;48.520;-1.330;2023-03-20T07:18:39;100694.19;;;8.48;94.55
48796;BME280;34607;48.520;-1.330;2023-03-20T07:21:06;100698.53;;;8.49;94.91
48796;BME280;34607;48.520;-1.330;2023-03-20T07:23:34;100699.69;;;8.59;94.88
48796;BME280;34607;48.520;-1.330;2023-03-20T07:26:03;100699.00;;;8.65;94.68
48796;BME280;34607;48.520;-1.330;2023-03-20T07:28:32;100699.16;;;8.69;94.77
48796;BME280;34607;48.520;-1.330;2023-03-20T07:31:18;100703.69;;;8.78;94.42
48796;BME280;34607;48.520;-1.330;2023-03-20T07:33:47;100707.19;;;8.80;94.60
48796;BME280;34607;48.520;-1.330;2023-03-20T07:36:14;100681.91;;;8.68;94.77
48796;BME280;34607;48.520;-1.330;2023-03-20T07:38:42;100722.13;;;8.90;94.64
48796;BME280;34607;48.520;-1.330;2023-03-20T07:41:11;100718.16;;;9.02;94.34
48796;BME280;34607;48.520;-1.330;2023-03-20T07:43:43;100715.69;;;9.06;94.29
48796;BME280;34607;48.520;-1.330;2023-03-20T07:46:28;100674.88;;;8.93;94.32
48796;BME280;34607;48.520;-1.330;2023-03-20T07:48:55;100726.63;;;9.28;94.03
48796;BME280;34607;48.520;-1.330;2023-03-20T07:51:23;100728.63;;;9.38;94.29
48796;BME280;34607;48.520;-1.330;2023-03-20T07:53:50;100730.53;;;9.45;93.93
48796;BME280;34607;48.520;-1.330;2023-03-20T07:56:18;100729.00;;;9.52;93.99
48796;BME280;34607;48.520;-1.330;2023-03-20T07:58:45;100725.66;;;9.56;94.24
48796;BME280;34607;48.520;-1.330;2023-03-20T08:01:12;100725.75;;;9.59;94.16
48796;BME280;34607;48.520;-1.330;2023-03-20T08:03:39;100726.66;;;9.61;94.42
48796;BME280;34607;48.520;-1.330;2023-03-20T08:06:08;100734.72;;;9.72;94.58
48796;BME280;34607;48.520;-1.330;2023-03-20T08:08:35;100733.84;;;9.73;94.47
48796;BME280;34607;48.520;-1.330;2023-03-20T08:11:02;100730.66;;;9.83;94.59
48796;BME280;34607;48.520;-1.330;2023-03-20T08:13:31;100729.16;;;9.91;94.47
48796;BME280;34607;48.520;-1.330;2023-03-20T08:15:58;100735.19;;;9.92;94.37
48796;BME280;34607;48.520;-1.330;2023-03-20T08:18:25;100730.91;;;9.92;94.29
48796;BME280;34607;48.520;-1.330;2023-03-20T08:20:52;100729.06;;;9.88;94.67
48796;BME280;34607;48.520;-1.330;2023-03-20T08:23:19;100720.56;;;9.92;94.87
48796;BME280;34607;48.520;-1.330;2023-03-20T08:25:47;100715.69;;;10.05;94.87
48796;BME280;34607;48.520;-1.330;2023-03-20T08:28:15;100719.56;;;10.22;94.64
48796;BME280;34607;48.520;-1.330;2023-03-20T08:30:43;100723.50;;;10.43;94.28
48796;BME280;34607;48.520;-1.330;2023-03-20T08:33:11;100717.75;;;10.55;93.90
48796;BME280;34607;48.520;-1.330;2023-03-20T08:35:38;100731.50;;;10.54;93.79
48796;BME280;34607;48.520;-1.330;2023-03-20T08:38:05;100728.13;;;10.56;93.43
48796;BME280;34607;48.520;-1.330;2023-03-20T08:40:32;100729.13;;;10.61;93.62
48796;BME280;34607;48.520;-1.330;2023-03-20T08:42:59;100724.72;;;10.59;93.26
48796;BME280;34607;48.520;-1.330;2023-03-20T08:45:26;100717.06;;;10.63;93.57
48796;BME280;34607;48.520;-1.330;2023-03-20T08:47:55;100724.88;;;10.65;93.28
48796;BME280;34607;48.520;-1.330;2023-03-20T08:50:22;100732.44;;;10.57;93.36
48796;BME280;34607;48.520;-1.330;2023-03-20T08:52:49;100727.34;;;10.60;93.81
48796;BME280;34607;48.520;-1.330;2023-03-20T08:55:16;100728.97;;;10.55;93.49
48796;BME280;34607;48.520;-1.330;2023-03-20T08:57:44;100730.06;;;10.65;93.66
48796;BME280;34607;48.520;-1.330;2023-03-20T09:00:13;100724.34;;;10.80;93.57
48796;BME280;34607;48.520;-1.330;2023-03-20T09:02:41;100728.09;;;10.94;93.23
48796;BME280;34607;48.520;-1.330;2023-03-20T09:05:10;100731.16;;;11.17;92.47
48796;BME280;34607;48.520;-1.330;2023-03-20T09:07:37;100724.25;;;11.18;92.07
48796;BME280;34607;48.520;-1.330;2023-03-20T09:10:05;100731.00;;;11.10;92.17
48796;BME280;34607;48.520;-1.330;2023-03-20T09:12:33;100717.00;;;11.01;92.34
48796;BME280;34607;48.520;-1.330;2023-03-20T09:15:00;100722.28;;;11.06;92.08
48796;BME280;34607;48.520;-1.330;2023-03-20T09:17:28;100728.44;;;11.11;92.44
48796;BME280;34607;48.520;-1.330;2023-03-20T09:19:56;100724.84;;;11.04;91.88
48796;BME280;34607;48.520;-1.330;2023-03-20T09:22:24;100722.00;;;10.92;92.63
48796;BME280;34607;48.520;-1.330;2023-03-20T09:24:51;100726.59;;;11.05;92.70
48796;BME280;34607;48.520;-1.330;2023-03-20T09:27:18;100722.31;;;11.08;92.79
48796;BME280;34607;48.520;-1.330;2023-03-20T09:29:46;100725.63;;;11.00;92.82
48796;BME280;34607;48.520;-1.330;2023-03-20T09:32:13;100718.84;;;11.09;93.26
48796;BME280;34607;48.520;-1.330;2023-03-20T09:34:41;100722.41;;;11.12;92.81
48796;BME280;34607;48.520;-1.330;2023-03-20T09:37:08;100728.63;;;11.22;93.06
48796;BME280;34607;48.520;-1.330;2023-03-20T09:39:37;100722.78;;;11.32;92.61
48796;BME280;34607;48.520;-1.330;2023-03-20T09:42:10;100719.81;;;11.58;92.18
48796;BME280;34607;48.520;-1.330;2023-03-20T09:44:51;100717.28;;;11.61;90.93
48796;BME280;34607;48.520;-1.330;2023-03-20T09:47:27;100713.84;;;11.62;91.23
48796;BME280;34607;48.520;-1.330;2023-03-20T09:50:12;100708.72;;;12.15;90.92
48796;BME280;34607;48.520;-1.330;2023-03-20T09:52:54;100700.69;;;12.58;89.46
48796;BME280;34607;48.520;-1.330;2023-03-20T09:55:29;100709.09;;;13.06;87.28
48796;BME280;34607;48.520;-1.330;2023-03-20T09:58:04;100715.97;;;13.02;87.67
48796;BME280;34607;48.520;-1.330;2023-03-20T10:00:34;100712.44;;;12.99;87.20
48796;BME280;34607;48.520;-1.330;2023-03-20T10:03:03;100715.75;;;12.84;87.66
48796;BME280;34607;48.520;-1.330;2023-03-20T10:05:35;100713.03;;;12.76;87.86
48796;BME280;34607;48.520;-1.330;2023-03-20T10:08:06;100713.00;;;12.74;88.12
48796;BME280;34607;48.520;-1.330;2023-03-20T10:10:45;100710.72;;;12.98;87.82
48796;BME280;34607;48.520;-1.330;2023-03-20T10:13:36;100696.88;;;13.02;87.34
48796;BME280;34607;48.520;-1.330;2023-03-20T10:16:12;100677.72;;;12.93;87.10
48796;BME280;34607;48.520;-1.330;2023-03-20T10:18:46;100699.63;;;13.11;86.86
48796;BME280;34607;48.520;-1.330;2023-03-20T10:21:16;100699.63;;;13.16;87.11
48796;BME280;34607;48.520;-1.330;2023-03-20T10:23:52;100704.06;;;13.21;86.75
48796;BME280;34607;48.520;-1.330;2023-03-20T10:26:23;100703.19;;;13.22;85.83
48796;BME280;34607;48.520;-1.330;2023-03-20T10:28:55;100699.78;;;13.28;86.56
48796;BME280;34607;48.520;-1.330;2023-03-20T10:31:32;100706.94;;;13.44;85.52
48796;BME280;34607;48.520;-1.330;2023-03-20T10:34:12;100688.91;;;13.64;85.40
48796;BME280;34607;48.520;-1.330;2023-03-20T10:36:51;100686.66;;;14.08;84.45
48796;BME280;34607;48.520;-1.330;2023-03-20T10:39:33;100691.97;;;14.23;82.59
48796;BME280;34607;48.520;-1.330;2023-03-20T10:42:12;100670.31;;;14.30;82.62
48796;BME280;34607;48.520;-1.330;2023-03-20T10:44:44;100677.50;;;14.64;82.13
48796;BME280;34607;48.520;-1.330;2023-03-20T10:47:17;100670.66;;;14.95;81.16
48796;BME280;34607;48.520;-1.330;2023-03-20T10:49:51;100671.50;;;14.86;80.47
48796;BME280;34607;48.520;-1.330;2023-03-20T10:52:23;100665.25;;;14.55;81.50
48796;BME280;34607;48.520;-1.330;2023-03-20T10:54:55;100676.56;;;14.57;81.38
48796;BME280;34607;48.520;-1.330;2023-03-20T10:57:26;100639.97;;;14.40;80.96
48796;BME280;34607;48.520;-1.330;2023-03-20T10:59:57;100672.97;;;14.38;80.31
48796;BME280;34607;48.520;-1.330;2023-03-20T11:02:28;100684.22;;;14.32;80.94
48796;BME280;34607;48.520;-1.330;2023-03-20T11:04:55;100668.00;;;14.78;80.74
48796;BME280;34607;48.520;-1.330;2023-03-20T11:07:27;100662.88;;;15.00;79.85
48796;BME280;34607;48.520;-1.330;2023-03-20T11:10:10;100658.41;;;14.77;78.45
48796;BME280;34607;48.520;-1.330;2023-03-20T11:12:42;100655.03;;;15.01;79.00
48796;BME280;34607;48.520;-1.330;2023-03-20T11:15:21;100660.22;;;14.95;78.28
48796;BME280;34607;48.520;-1.330;2023-03-20T11:17:56;100619.28;;;14.69;78.30
48796;BME280;34607;48.520;-1.330;2023-03-20T11:20:24;100649.75;;;14.83;78.11
48796;BME280;34607;48.520;-1.330;2023-03-20T11:22:58;100637.53;;;14.60;78.21
48796;BME280;34607;48.520;-1.330;2023-03-20T11:25:31;100638.31;;;14.50;78.36
48796;BME280;34607;48.520;-1.330;2023-03-20T11:28:19;100641.81;;;14.55;78.19
48796;BME280;34607;48.520;-1.330;2023-03-20T11:30:47;100626.13;;;14.47;79.27
48796;BME280;34607;48.520;-1.330;2023-03-20T11:33:16;100644.44;;;14.61;78.30
48796;BME280;34607;48.520;-1.330;2023-03-20T11:35:46;100633.06;;;14.51;78.27
48796;BME280;34607;48.520;-1.330;2023-03-20T11:38:15;100635.72;;;14.56;79.51
48796;BME280;34607;48.520;-1.330;2023-03-20T11:40:42;100625.28;;;14.56;79.21
48796;BME280;34607;48.520;-1.330;2023-03-20T11:43:13;100626.97;;;14.43;79.81
48796;BME280;34607;48.520;-1.330;2023-03-20T11:45:43;100631.47;;;14.69;80.19
48796;BME280;34607;48.520;-1.330;2023-03-20T11:48:18;100628.06;;;15.01;78.96
48796;BME280;34607;48.520;-1.330;2023-03-20T11:50:47;100615.03;;;14.96;78.87
48796;BME280;34607;48.520;-1.330;2023-03-20T11:53:22;100604.56;;;14.85;78.67
48796;BME280;34607;48.520;-1.330;2023-03-20T11:56:02;100597.66;;;15.06;78.20
48796;BME280;34607;48.520;-1.330;2023-03-20T11:58:30;100605.50;;;15.01;77.78
48796;BME280;34607;48.520;-1.330;2023-03-20T12:01:00;100601.97;;;14.90;77.97
48796;BME280;34607;48.520;-1.330;2023-03-20T12:03:36;100593.28;;;14.95;78.05
48796;BME280;34607;48.520;-1.330;2023-03-20T12:06:07;100592.41;;;14.83;77.87
48796;BME280;34607;48.520;-1.330;2023-03-20T12:08:36;100582.81;;;14.77;79.05
48796;BME280;34607;48.520;-1.330;2023-03-20T12:11:18;100570.69;;;14.99;78.54
48796;BME280;34607;48.520;-1.330;2023-03-20T12:13:49;100577.66;;;14.91;77.83
48796;BME280;34607;48.520;-1.330;2023-03-20T12:16:20;100579.34;;;14.76;78.66
48796;BME280;34607;48.520;-1.330;2023-03-20T12:18:52;100574.13;;;14.76;78.32
48796;BME280;34607;48.520;-1.330;2023-03-20T12:21:23;100561.09;;;14.76;78.48
48796;BME280;34607;48.520;-1.330;2023-03-20T12:23:56;100578.53;;;15.05;77.65
48796;BME280;34607;48.520;-1.330;2023-03-20T12:26:31;100575.06;;;15.23;77.35
48796;BME280;34607;48.520;-1.330;2023-03-20T12:29:04;100562.03;;;15.65;75.73
48796;BME280;34607;48.520;-1.330;2023-03-20T12:31:39;100571.59;;;15.90;74.56
48796;BME280;34607;48.520;-1.330;2023-03-20T12:34:11;100568.06;;;16.13;73.74
48796;BME280;34607;48.520;-1.330;2023-03-20T12:36:41;100555.94;;;15.53;72.60
48796;BME280;34607;48.520;-1.330;2023-03-20T12:39:11;100557.69;;;15.30;73.28
48796;BME280;34607;48.520;-1.330;2023-03-20T12:41:52;100560.31;;;15.25;73.63
48796;BME280;34607;48.520;-1.330;2023-03-20T12:44:35;100545.50;;;15.07;74.25
48796;BME280;34607;48.520;-1.330;2023-03-20T12:47:14;100555.06;;;15.07;74.57
48796;BME280;34607;48.520;-1.330;2023-03-20T12:49:52;100542.91;;;15.00;74.97
48796;BME280;34607;48.520;-1.330;2023-03-20T12:52:31;100533.31;;;15.08;75.98
48796;BME280;34607;48.520;-1.330;2023-03-20T12:55:15;100539.41;;;15.65;75.50
48796;BME280;34607;48.520;-1.330;2023-03-20T12:57:56;100545.41;;;16.10;74.62
48796;BME280;34607;48.520;-1.330;2023-03-20T13:00:30;100535.06;;;15.57;74.85
48796;BME280;34607;48.520;-1.330;2023-03-20T13:03:09;100529.00;;;15.19;75.28
48796;BME280;34607;48.520;-1.330;2023-03-20T13:05:45;100524.59;;;14.78;76.03
48796;BME280;34607;48.520;-1.330;2023-03-20T13:11:15;100540.91;;;14.24;77.57
48796;BME280;34607;48.520;-1.330;2023-03-20T13:13:48;100544.31;;;14.10;77.86
48796;BME280;34607;48.520;-1.330;2023-03-20T13:16:25;100536.41;;;13.88;78.52
48796;BME280;34607;48.520;-1.330;2023-03-20T13:19:02;100497.25;;;13.71;79.27
48796;BME280;34607;48.520;-1.330;2023-03-20T13:21:36;100523.44;;;14.05;79.34